aviador You're here:

TIST Decoded Metar

ST. THOMAS in VIRGIN ISL.
Report Time2017-08-24 00:53:00
UTC Time2017-08-24 01:11:37
Flight Rules vfr VFR
Wind080° at 05 kt
W.Decomp.*RWY 10: 5.0 kt HW 0.6 kt LCW
W.Rank080° ranks 2
Current wind is below 080° avg. (8.1)
Visibility9999 m
Phenomena:N/A
Clouds:N/A
Expected CloudBase > 1,200 ft AGL from Temp-Dew spread
CeilingNone
Temp27°C (ISA +12)
Dew Point24°C (84% RH)
Heat Index30.1°C
QNH1014 hPa
Density Alt1,768 ft
Elevation23 ft
Report Wrong Elevation
Raw Report
TIST 240053Z 08005KT 10SM CLR 27/24 A2993=

Extra information for TIST:More info

Metar Taf Metar & Taf Last 4 Metars F.Rules Stats Wind Profile Meteogram Temp Stats Airport Information Weather charts Add Link Nearby VenuesMetar ALERT Operation Metar Decoded Social comments